AirNav  
 
 1286 users online  

33NY Wayne Delp Airport
West Coxsackie, New York, USA

GOING TO WEST COXSACKIE?


FAA INFORMATION EFFECTIVE 25 FEBRUARY 2021

Location

FAA Identifier: 33NY
Lat/Long: 42-23-58.2990N 073-51-58.4560W
42-23.971650N 073-51.974267W
42.3995275,-73.8662378
(estimated)
Elevation: 800 ft. / 244 m (estimated)
Variation: 14W (1990)
From city: 3 miles NW of WEST COXSACKIE, NY
Time zone: UTC -5 (UTC -4 during Daylight Saving Time)
Zip code: 12087

Airport Operations

Airport use: Private use. Permission required prior to landing
Activation date: 01/1994
Control tower: no
ARTCC: BOSTON CENTER
FSS: BURLINGTON FLIGHT SERVICE STATION
Attendance: UNATNDD
Wind indicator: yes
Segmented circle: no

Airport Communications

WX AWOS-3 at 1B1 (9 nm SE): 133.525 (518-828-2577)

Nearby radio navigation aids

VOR radial/distance  VOR name  Freq  Var
ALBr201/21.1ALBANY VORTAC115.3013W
PWLr355/39.6PAWLING VOR/DME114.3012W

 
NDB name  Hdg/Dist  Freq  Var  ID
PHILMONT337/10.827213WPFH .--. ..-. ....
HUNTER188/27.435614WHEU .... . ..-

Airport Services

Runway Information

Runway 17/35

Dimensions: 3000 x 100 ft. / 914 x 30 m
Surface: turf
RUNWAY 17  RUNWAY 35
Traffic pattern: leftleft
Obstructions: 200 ft. tower, 1250 ft. from runwaynone

Airport Ownership and Management from official FAA records

Ownership: Privately-owned
Owner: THOMAS DELP
P.O. BOX 14
RENSSELAERVILLE, NY 12147
Phone 518-731-8473
Manager: THOMAS DELP
RD 1 HAAS ROAD
WEST COXACKIE, NY 12192
Phone 516-731-8473

Airport Operational Statistics

Aircraft based on the field: 4
Single engine airplanes: 4
    

Additional Remarks

FOR CD CTC ALBANY APCH AT 518-862-2299.

Instrument Procedures

There are no published instrument procedures at 33NY.

Some nearby airports with instrument procedures:

1B1 - Columbia County Airport (9 nm SE)
4B0 - South Albany Airport (10 nm N)
KALB - Albany International Airport (21 nm N)
KGBR - Walter J Koladza Airport (24 nm SE)
20N - Kingston-Ulster Airport (25 nm S)
 
Loc | Ops | Rwys | IFR | FBO | Links
Com | Nav | Svcs | Stats | Notes
Area around 33NY (Wayne Delp Airport)
 
Road maps at: MapQuest Bing Google
 
Aerial photo
No photo
 
Sectional chart

 
Airport distance calculator
Flying to Wayne Delp Airport? Find the distance to fly.

From to 33NY

Sunrise and sunset
Times for 03-Mar-2021
 Local
(UTC-5)
 Zulu
(UTC)
Morning civil twilight06:0111:01
Sunrise06:2911:29
Sunset17:4622:46
Evening civil twilight18:1423:14

Current date and time
Zulu (UTC)  03-Mar-2021 14:42:39
Local (UTC-5)  03-Mar-2021 09:42:39
 
METAR
KALB 
21nm N 
031251Z 16003KT 10SM FEW110 SCT140 M06/M12 A2989 RMK AO2 SLP125 T10561122
KPSF 
26nm E 
031254Z AUTO 28011KT 10SM CLR M02/M13 A2980 RMK AO2 SLP107 T10171128
KSCH 
27nm N 
030246Z 30004KT 15SM SCT060 M07/M13 A3005 RMK LAST
KAQW 
36nm NE 
031252Z AUTO 28005KT 10SM OVC055 M01/M12 A2984 RMK AO2 SLP113 T10061117
KDDH 
40nm NE 
031254Z AUTO 00000KT 10SM CLR M04/M12 A2984 RMK AO2 SLP118 T10441117
KNY0 
41nm NW 
031235Z AUTO 00000KT 10SM CLR M09/M14 A2985 RMK AO2
TAF
KALB 
21nm N 
031121Z 0312/0412 19005KT P6SM BKN150 FM031400 24008KT P6SM SCT050 FM031800 27012G18KT P6SM BKN050 FM040100 29006KT P6SM BKN045 FM040500 33007KT P6SM VCSH SCT025 BKN035 FM041000 35009KT P6SM SCT030
KPSF 
26nm E 
031121Z 0312/0412 24004KT P6SM BKN110 WS020/27035KT FM031500 27012G18KT P6SM SCT050 FM031900 28010G17KT P6SM BKN045 FM040300 29007KT P6SM VCSH SCT020 BKN035 FM040700 31008KT P6SM VCSH SCT015 OVC035 AMD NOT SKED
NOTAMs
Click for the latest NOTAMs
NOTAMs are issued by the DoD/FAA and will open in a separate window not controlled by AirNav.

 

 
 

Would you like to see your business listed on this page?

 If your business provides an interesting product or service to pilots, flight crews, aircraft, or users of the Wayne Delp Airport, you should consider listing it here.  To start the listing process, click on the button below
 
Add a business
 

Other Pages about Wayne Delp Airport

Update a link
 
Copyright © AirNav, LLC. All rights reserved. Privacy Policy  Contact